createdAt,value
2018-12-30T00:00:16.561Z,3.14
2018-12-30T00:01:16.663Z,3.22
2018-12-30T00:02:15.942Z,3.26
2018-12-30T00:03:16.233Z,3.26
2018-12-30T00:04:16.189Z,3.27
2018-12-30T00:05:16.113Z,3.33
2018-12-30T00:06:16.407Z,3.36
2018-12-30T00:07:16.093Z,3.33
2018-12-30T00:08:15.842Z,3.37
2018-12-30T00:09:16.129Z,3.33
2018-12-30T00:10:16.433Z,3.36
2018-12-30T00:11:16.458Z,3.33
2018-12-30T00:12:16.782Z,3.37
2018-12-30T00:13:16.054Z,3.39
2018-12-30T00:14:16.326Z,3.40
2018-12-30T00:15:16.376Z,3.43
2018-12-30T00:16:16.674Z,3.43
2018-12-30T00:17:16.499Z,3.47
2018-12-30T00:18:16.790Z,3.43
2018-12-30T00:19:16.077Z,3.47
2018-12-30T00:20:15.970Z,3.43
2018-12-30T00:21:16.021Z,3.41
2018-12-30T00:22:16.316Z,3.41
2018-12-30T00:23:16.639Z,3.43
2018-12-30T00:24:15.928Z,3.46
2018-12-30T00:25:15.899Z,3.43
2018-12-30T00:26:16.210Z,3.43
2018-12-30T00:27:15.888Z,3.47
2018-12-30T00:28:16.234Z,3.41
2018-12-30T00:29:16.540Z,3.47
2018-12-30T00:30:16.843Z,3.47
2018-12-30T00:31:15.891Z,3.47
2018-12-30T00:32:16.186Z,3.44
2018-12-30T00:33:16.489Z,3.44
2018-12-30T00:34:16.786Z,3.49
2018-12-30T00:35:16.088Z,3.49
2018-12-30T00:36:16.378Z,3.50
2018-12-30T00:37:16.695Z,3.44
2018-12-30T00:38:15.984Z,3.44
2018-12-30T00:39:16.277Z,3.47
2018-12-30T00:40:16.582Z,3.47
2018-12-30T00:41:16.621Z,3.46
2018-12-30T00:42:16.462Z,3.39
2018-12-30T00:43:16.757Z,3.40
2018-12-30T00:44:16.049Z,3.40
2018-12-30T00:45:16.338Z,3.40
2018-12-30T00:46:16.627Z,3.37
2018-12-30T00:47:15.915Z,3.40
2018-12-30T00:48:16.215Z,3.40
2018-12-30T00:49:16.507Z,3.39
2018-12-30T00:50:16.359Z,3.47
2018-12-30T00:51:17.064Z,3.41
2018-12-30T00:52:16.749Z,3.44
2018-12-30T00:53:16.041Z,3.40
2018-12-30T00:54:16.344Z,3.41
2018-12-30T00:55:16.659Z,3.43
2018-12-30T00:56:15.955Z,3.41
2018-12-30T00:57:16.276Z,3.44
2018-12-30T00:58:16.053Z,3.46
2018-12-30T00:59:16.342Z,3.47
2018-12-30T01:00:16.643Z,3.49
2018-12-30T01:01:16.698Z,3.54
2018-12-30T01:02:15.996Z,3.54
2018-12-30T01:03:16.299Z,3.54
2018-12-30T01:04:16.593Z,3.51
2018-12-30T01:05:15.904Z,3.54
2018-12-30T01:06:16.216Z,3.55
2018-12-30T01:07:16.504Z,3.51
2018-12-30T01:08:16.816Z,3.54
2018-12-30T01:09:16.117Z,3.53
2018-12-30T01:10:16.437Z,3.50
2018-12-30T01:11:16.751Z,3.49
2018-12-30T01:12:16.052Z,3.46
2018-12-30T01:13:16.352Z,3.41
2018-12-30T01:14:16.666Z,3.46
2018-12-30T01:15:16.588Z,3.47
2018-12-30T01:16:15.883Z,3.44
2018-12-30T01:17:16.175Z,3.40
2018-12-30T01:18:16.474Z,3.39
2018-12-30T01:19:16.768Z,3.44
2018-12-30T01:20:16.066Z,3.41
2018-12-30T01:21:16.116Z,3.44
2018-12-30T01:22:16.414Z,3.44
2018-12-30T01:23:16.251Z,3.44
2018-12-30T01:24:16.564Z,3.44
2018-12-30T01:25:15.864Z,3.44
2018-12-30T01:26:16.158Z,3.43
2018-12-30T01:27:16.458Z,3.40
2018-12-30T01:28:16.748Z,3.46
2018-12-30T01:29:16.061Z,3.40
2018-12-30T01:30:16.365Z,3.41
2018-12-30T01:31:16.385Z,3.41
2018-12-30T01:32:16.670Z,3.40
2018-12-30T01:33:15.976Z,3.36
2018-12-30T01:34:16.274Z,3.34
2018-12-30T01:35:16.598Z,3.41
2018-12-30T01:36:15.892Z,3.34
2018-12-30T01:37:16.193Z,3.34
2018-12-30T01:38:16.524Z,3.37
2018-12-30T01:39:15.850Z,3.39
2018-12-30T01:40:15.857Z,3.39
2018-12-30T01:41:15.929Z,3.39
2018-12-30T01:42:16.224Z,3.37
2018-12-30T01:43:16.511Z,3.37
2018-12-30T01:44:16.806Z,3.31
2018-12-30T01:45:16.111Z,3.31
2018-12-30T01:46:16.396Z,3.40
2018-12-30T01:47:16.699Z,3.33
2018-12-30T01:48:16.444Z,3.41
2018-12-30T01:49:16.748Z,3.41
2018-12-30T01:50:16.068Z,3.37
2018-12-30T01:51:16.094Z,3.40
2018-12-30T01:52:16.379Z,3.39
2018-12-30T01:53:16.663Z,3.40
2018-12-30T01:54:15.956Z,3.40
2018-12-30T01:55:16.255Z,3.40
2018-12-30T01:56:16.553Z,3.40
2018-12-30T01:57:16.465Z,3.41
2018-12-30T01:58:16.767Z,3.40
2018-12-30T01:59:16.068Z,3.43
2018-12-30T02:00:16.358Z,3.40
2018-12-30T02:01:16.423Z,3.41
2018-12-30T02:02:16.714Z,3.36
2018-12-30T02:03:16.012Z,3.39
2018-12-30T02:04:16.298Z,3.37
2018-12-30T02:05:16.054Z,3.43
2018-12-30T02:06:16.349Z,3.36
2018-12-30T02:07:16.640Z,3.40
2018-12-30T02:08:15.944Z,3.40
2018-12-30T02:09:16.244Z,3.39
2018-12-30T02:10:16.537Z,3.39
2018-12-30T02:11:16.590Z,3.44
2018-12-30T02:12:15.881Z,3.43
2018-12-30T02:13:16.165Z,3.37
2018-12-30T02:14:16.039Z,3.39
2018-12-30T02:15:16.355Z,3.39
2018-12-30T02:16:16.633Z,3.37
2018-12-30T02:17:15.921Z,3.40
2018-12-30T02:18:16.203Z,3.37
2018-12-30T02:19:16.492Z,3.39
2018-12-30T02:20:17.054Z,3.44
2018-12-30T02:21:16.827Z,3.40
2018-12-30T02:22:16.120Z,3.40
2018-12-30T02:23:16.072Z,3.41
2018-12-30T02:24:16.349Z,3.37
2018-12-30T02:25:16.635Z,3.40
2018-12-30T02:26:15.918Z,3.43
2018-12-30T02:27:16.188Z,3.40
2018-12-30T02:28:16.470Z,3.41
2018-12-30T02:29:16.752Z,3.40
2018-12-30T02:30:16.056Z,3.41
2018-12-30T02:31:16.098Z,3.41
2018-12-30T02:32:16.394Z,3.39
2018-12-30T02:33:16.682Z,3.36
2018-12-30T02:34:15.968Z,3.37
2018-12-30T02:35:16.281Z,3.36
2018-12-30T02:36:16.561Z,3.36
2018-12-30T02:37:15.846Z,3.36
2018-12-30T02:38:16.132Z,3.39
2018-12-30T02:39:16.413Z,3.39
2018-12-30T02:40:16.850Z,3.40
2018-12-30T02:41:15.875Z,3.37
2018-12-30T02:42:16.162Z,3.37
2018-12-30T02:43:16.460Z,3.41
2018-12-30T02:44:16.754Z,3.43
2018-12-30T02:45:16.053Z,3.44
2018-12-30T02:46:16.355Z,3.44
2018-12-30T02:47:16.645Z,3.44
2018-12-30T02:48:15.926Z,3.43
2018-12-30T02:49:16.498Z,3.50
2018-12-30T02:50:17.037Z,3.46
2018-12-30T02:51:16.834Z,3.46
2018-12-30T02:52:16.119Z,3.43
2018-12-30T02:53:16.398Z,3.46
2018-12-30T02:54:16.698Z,3.50
2018-12-30T02:55:15.991Z,3.53
2018-12-30T02:56:16.292Z,3.57
2018-12-30T02:57:16.594Z,3.57
2018-12-30T02:58:16.336Z,3.60
2018-12-30T02:59:16.624Z,3.57
2018-12-30T03:00:15.905Z,3.60
2018-12-30T03:01:15.911Z,3.58
2018-12-30T03:02:16.202Z,3.60
2018-12-30T03:03:16.490Z,3.62
2018-12-30T03:04:16.769Z,3.68
2018-12-30T03:05:16.045Z,3.67
2018-12-30T03:06:16.341Z,3.71
2018-12-30T03:07:15.981Z,3.72
2018-12-30T03:08:16.237Z,3.69
2018-12-30T03:09:16.523Z,3.69
2018-12-30T03:10:15.964Z,3.72
2018-12-30T03:11:16.008Z,3.69
2018-12-30T03:12:16.291Z,3.69
2018-12-30T03:13:16.569Z,3.72
2018-12-30T03:14:16.839Z,3.75
2018-12-30T03:15:16.149Z,3.69
2018-12-30T03:16:16.431Z,3.69
2018-12-30T03:17:16.710Z,3.75
2018-12-30T03:18:15.975Z,3.75
2018-12-30T03:19:16.241Z,3.75
2018-12-30T03:20:16.522Z,3.75
2018-12-30T03:21:16.577Z,3.75
2018-12-30T03:22:15.871Z,3.75
2018-12-30T03:23:16.168Z,3.77
2018-12-30T03:24:16.436Z,3.72
2018-12-30T03:25:16.711Z,3.71
2018-12-30T03:26:15.974Z,3.71
2018-12-30T03:27:16.243Z,3.74
2018-12-30T03:28:16.504Z,3.72
2018-12-30T03:29:16.779Z,3.74
2018-12-30T03:30:16.072Z,3.71
2018-12-30T03:31:16.113Z,3.71
2018-12-30T03:32:16.390Z,3.67
2018-12-30T03:33:16.657Z,3.75
2018-12-30T03:34:15.931Z,3.71
2018-12-30T03:35:16.203Z,3.74
2018-12-30T03:36:16.471Z,3.72
2018-12-30T03:37:16.753Z,3.68
2018-12-30T03:38:16.028Z,3.69
2018-12-30T03:39:16.286Z,3.71
2018-12-30T03:40:16.560Z,3.69
2018-12-30T03:41:16.592Z,3.71
2018-12-30T03:42:15.889Z,3.72
2018-12-30T03:43:16.158Z,3.72
2018-12-30T03:44:16.418Z,3.69
2018-12-30T03:45:16.701Z,3.69
2018-12-30T03:46:15.982Z,3.69
2018-12-30T03:47:16.552Z,3.72
2018-12-30T03:48:16.813Z,3.72
2018-12-30T03:49:16.093Z,3.71
2018-12-30T03:50:16.386Z,3.71
2018-12-30T03:51:16.439Z,3.71
2018-12-30T03:52:16.718Z,3.71
2018-12-30T03:53:16.248Z,3.72
2018-12-30T03:54:16.520Z,3.72
2018-12-30T03:55:16.799Z,3.69
2018-12-30T03:56:16.068Z,3.71
2018-12-30T03:57:16.337Z,3.72
2018-12-30T03:58:16.601Z,3.67
2018-12-30T03:59:15.873Z,3.69
2018-12-30T04:00:16.155Z,3.69
2018-12-30T04:01:16.217Z,3.69
2018-12-30T04:02:16.484Z,3.72
2018-12-30T04:03:17.066Z,3.67
2018-12-30T04:04:16.357Z,3.68
2018-12-30T04:05:16.639Z,3.68
2018-12-30T04:06:15.902Z,3.74
2018-12-30T04:07:16.181Z,3.71
2018-12-30T04:08:16.466Z,3.71
2018-12-30T04:09:16.740Z,3.72
2018-12-30T04:10:16.018Z,3.71
2018-12-30T04:11:16.085Z,3.75
2018-12-30T04:12:16.355Z,3.77
2018-12-30T04:13:16.621Z,3.75
2018-12-30T04:14:15.891Z,3.78
2018-12-30T04:15:16.163Z,3.77
2018-12-30T04:16:16.434Z,3.75
2018-12-30T04:17:16.688Z,3.79
2018-12-30T04:18:15.958Z,3.79
2018-12-30T04:19:16.227Z,3.82
2018-12-30T04:20:16.503Z,3.83
2018-12-30T04:21:16.566Z,3.85
2018-12-30T04:22:17.122Z,3.92
2018-12-30T04:23:16.511Z,3.90
2018-12-30T04:24:16.796Z,3.89
2018-12-30T04:25:16.060Z,3.92
2018-12-30T04:26:16.337Z,3.93
2018-12-30T04:27:16.608Z,3.93
2018-12-30T04:28:15.869Z,3.97
2018-12-30T04:29:16.137Z,4.03
2018-12-30T04:30:16.411Z,4.03
2018-12-30T04:31:16.672Z,4.03
2018-12-30T04:32:15.928Z,4.05
2018-12-30T04:33:16.184Z,4.00
2018-12-30T04:34:16.452Z,4.00
2018-12-30T04:35:17.141Z,3.99
2018-12-30T04:36:16.410Z,4.00
2018-12-30T04:37:16.671Z,4.00
2018-12-30T04:38:15.944Z,3.99
2018-12-30T04:39:16.227Z,3.99
2018-12-30T04:40:16.510Z,4.00
2018-12-30T04:41:16.553Z,4.02
2018-12-30T04:42:16.834Z,4.12
2018-12-30T04:43:16.099Z,4.09
2018-12-30T04:44:16.373Z,4.10
2018-12-30T04:45:16.654Z,4.12
2018-12-30T04:46:15.925Z,4.14
2018-12-30T04:47:16.206Z,4.13
2018-12-30T04:48:16.469Z,4.14
2018-12-30T04:49:16.742Z,4.16
2018-12-30T04:50:16.019Z,4.17
2018-12-30T04:51:16.078Z,4.16
2018-12-30T04:52:16.373Z,4.16
2018-12-30T04:53:16.647Z,4.16
2018-12-30T04:54:15.915Z,4.17
2018-12-30T04:55:16.187Z,4.17
2018-12-30T04:56:16.454Z,4.18
2018-12-30T04:57:16.728Z,4.20
2018-12-30T04:58:15.995Z,4.20
2018-12-30T04:59:16.267Z,4.24
2018-12-30T05:00:16.532Z,4.23
2018-12-30T05:01:16.596Z,4.24
2018-12-30T05:02:15.862Z,4.28
2018-12-30T05:03:16.124Z,4.31
2018-12-30T05:04:16.469Z,4.35
2018-12-30T05:05:16.742Z,4.34
2018-12-30T05:06:16.006Z,4.37
2018-12-30T05:07:16.276Z,4.34
2018-12-30T05:08:16.542Z,4.33
2018-12-30T05:09:16.822Z,4.31
2018-12-30T05:10:16.080Z,4.34
2018-12-30T05:11:16.124Z,4.33
2018-12-30T05:12:16.403Z,4.31
2018-12-30T05:13:16.667Z,4.34
2018-12-30T05:14:15.930Z,4.33
2018-12-30T05:15:16.203Z,4.34
2018-12-30T05:16:18.080Z,4.34
2018-12-30T05:17:16.494Z,4.31
2018-12-30T05:18:16.767Z,4.31
2018-12-30T05:19:16.025Z,4.34
2018-12-30T05:20:16.314Z,4.31
2018-12-30T05:21:16.344Z,4.33
2018-12-30T05:22:16.613Z,4.31
2018-12-30T05:23:15.883Z,4.33
2018-12-30T05:24:16.149Z,4.31
2018-12-30T05:25:16.429Z,4.30
2018-12-30T05:26:16.706Z,4.28
2018-12-30T05:27:16.298Z,4.31
2018-12-30T05:28:16.574Z,4.34
2018-12-30T05:29:15.845Z,4.33
2018-12-30T05:30:16.114Z,4.34
2018-12-30T05:31:16.169Z,4.33
2018-12-30T05:32:16.435Z,4.37
2018-12-30T05:33:16.708Z,4.34
2018-12-30T05:34:15.988Z,4.37
2018-12-30T05:35:16.248Z,4.35
2018-12-30T05:36:16.521Z,4.34
2018-12-30T05:37:16.786Z,4.37
2018-12-30T05:38:16.046Z,4.34
2018-12-30T05:39:16.318Z,4.35
2018-12-30T05:40:16.585Z,4.34
2018-12-30T05:41:16.637Z,4.40
2018-12-30T05:42:15.900Z,4.37
2018-12-30T05:43:16.174Z,4.40
2018-12-30T05:44:16.435Z,4.35
2018-12-30T05:45:16.959Z,4.42
2018-12-30T05:46:16.231Z,4.44
2018-12-30T05:47:16.495Z,4.42
2018-12-30T05:48:16.755Z,4.42
2018-12-30T05:49:16.024Z,4.44
2018-12-30T05:50:16.298Z,4.42
2018-12-30T05:51:16.323Z,4.50
2018-12-30T05:52:16.587Z,4.51
2018-12-30T05:53:15.859Z,4.51
2018-12-30T05:54:16.117Z,4.52
2018-12-30T05:55:16.392Z,4.54
2018-12-30T05:56:16.673Z,4.55
2018-12-30T05:57:15.934Z,4.54
2018-12-30T05:58:16.197Z,4.55
2018-12-30T05:59:16.455Z,4.57
2018-12-30T06:00:16.735Z,4.57
2018-12-30T06:01:17.251Z,4.61
2018-12-30T06:02:16.535Z,4.59
2018-12-30T06:03:16.793Z,4.58
2018-12-30T06:04:16.055Z,4.62
2018-12-30T06:05:16.321Z,4.61
2018-12-30T06:06:16.579Z,4.59
2018-12-30T06:07:15.851Z,4.59
2018-12-30T06:08:16.117Z,4.61
2018-12-30T06:09:16.386Z,4.58
2018-12-30T06:10:16.680Z,4.59
2018-12-30T06:11:16.720Z,4.58
2018-12-30T06:12:15.982Z,4.62
2018-12-30T06:13:16.258Z,4.64
2018-12-30T06:14:16.517Z,4.65
2018-12-30T06:15:16.797Z,4.67
2018-12-30T06:16:16.064Z,4.67
2018-12-30T06:17:16.334Z,4.67
2018-12-30T06:18:16.601Z,4.65
2018-12-30T06:19:15.861Z,4.69
2018-12-30T06:20:16.136Z,4.69
2018-12-30T06:21:16.176Z,4.69
2018-12-30T06:22:16.445Z,4.65
2018-12-30T06:23:16.715Z,4.69
2018-12-30T06:24:15.977Z,4.68
2018-12-30T06:25:16.241Z,4.72
2018-12-30T06:26:16.516Z,4.71
2018-12-30T06:27:16.781Z,4.67
2018-12-30T06:28:16.047Z,4.73
2018-12-30T06:29:16.310Z,4.71
2018-12-30T06:30:16.585Z,4.72
2018-12-30T06:31:16.618Z,4.67
2018-12-30T06:32:15.881Z,4.71
2018-12-30T06:33:16.143Z,4.71
2018-12-30T06:34:16.413Z,4.71
2018-12-30T06:35:16.715Z,4.75
2018-12-30T06:36:16.017Z,4.72
2018-12-30T06:37:16.378Z,4.72
2018-12-30T06:38:16.639Z,4.73
2018-12-30T06:39:15.907Z,4.72
2018-12-30T06:40:16.495Z,4.71
2018-12-30T06:41:16.248Z,4.76
2018-12-30T06:42:16.529Z,4.75
2018-12-30T06:43:16.787Z,4.73
2018-12-30T06:44:16.052Z,4.75
2018-12-30T06:45:16.319Z,4.80
2018-12-30T06:46:16.586Z,4.78
2018-12-30T06:47:15.847Z,4.78
2018-12-30T06:48:16.111Z,4.76
2018-12-30T06:49:16.378Z,4.82
2018-12-30T06:50:16.646Z,4.85
2018-12-30T06:51:16.700Z,4.82
2018-12-30T06:52:15.965Z,4.82
2018-12-30T06:53:16.235Z,4.83
2018-12-30T06:54:16.518Z,4.85
2018-12-30T06:55:17.201Z,4.87
2018-12-30T06:56:16.459Z,4.92
2018-12-30T06:57:16.718Z,4.90
2018-12-30T06:58:15.984Z,4.87
2018-12-30T06:59:16.258Z,4.86
2018-12-30T07:00:16.553Z,4.86
2018-12-30T07:01:16.599Z,4.87
2018-12-30T07:02:15.858Z,4.86
2018-12-30T07:03:16.122Z,4.85
2018-12-30T07:04:16.393Z,4.86
2018-12-30T07:05:16.678Z,4.87
2018-12-30T07:06:15.947Z,4.83
2018-12-30T07:07:16.216Z,4.85
2018-12-30T07:08:16.481Z,4.87
2018-12-30T07:09:16.748Z,4.87
2018-12-30T07:10:16.021Z,4.86
2018-12-30T07:11:16.303Z,4.92
2018-12-30T07:12:16.669Z,4.86
2018-12-30T07:13:15.940Z,4.85
2018-12-30T07:14:16.205Z,4.87
2018-12-30T07:15:16.488Z,4.86
2018-12-30T07:16:16.754Z,4.87
2018-12-30T07:17:16.345Z,4.87
2018-12-30T07:18:16.620Z,4.89
2018-12-30T07:19:15.889Z,4.86
2018-12-30T07:20:16.173Z,4.90
2018-12-30T07:21:16.215Z,4.86
2018-12-30T07:22:16.511Z,4.89
2018-12-30T07:23:16.776Z,4.89
2018-12-30T07:24:16.040Z,4.89
2018-12-30T07:25:16.304Z,4.93
2018-12-30T07:26:16.572Z,4.90
2018-12-30T07:27:15.837Z,4.90
2018-12-30T07:28:16.103Z,4.93
2018-12-30T07:29:16.357Z,4.95
2018-12-30T07:30:16.632Z,5.00
2018-12-30T07:31:16.682Z,4.97
2018-12-30T07:32:15.965Z,5.03
2018-12-30T07:33:16.236Z,5.04
2018-12-30T07:34:16.509Z,5.03
2018-12-30T07:35:16.775Z,5.03
2018-12-30T07:36:16.039Z,5.02
2018-12-30T07:37:16.299Z,5.03
2018-12-30T07:38:16.561Z,5.06
2018-12-30T07:39:16.823Z,5.10
2018-12-30T07:40:16.096Z,5.07
2018-12-30T07:41:16.154Z,5.11
2018-12-30T07:42:16.419Z,5.13
2018-12-30T07:43:16.680Z,5.14
2018-12-30T07:44:15.935Z,5.15
2018-12-30T07:45:16.207Z,5.18
2018-12-30T07:46:16.483Z,5.23
2018-12-30T07:47:16.804Z,5.23
2018-12-30T07:48:16.074Z,5.17
2018-12-30T07:49:16.350Z,5.18
2018-12-30T07:50:16.632Z,5.14
2018-12-30T07:51:16.664Z,5.20
2018-12-30T07:52:15.934Z,5.23
2018-12-30T07:53:16.196Z,5.23
2018-12-30T07:54:16.458Z,5.25
2018-12-30T07:55:16.726Z,5.25
2018-12-30T07:56:15.993Z,5.27
2018-12-30T07:57:16.254Z,5.24
2018-12-30T07:58:16.514Z,5.23
2018-12-30T07:59:16.776Z,5.28
2018-12-30T08:00:16.045Z,5.31
2018-12-30T08:01:16.091Z,5.39
2018-12-30T08:02:16.362Z,5.38
2018-12-30T08:03:16.629Z,5.39
2018-12-30T08:04:15.898Z,5.37
2018-12-30T08:05:16.157Z,5.34
2018-12-30T08:06:16.420Z,5.35
2018-12-30T08:07:16.682Z,5.37
2018-12-30T08:08:15.939Z,5.45
2018-12-30T08:09:16.578Z,5.42
2018-12-30T08:10:15.864Z,5.45
2018-12-30T08:11:16.024Z,5.46
2018-12-30T08:12:16.287Z,5.48
2018-12-30T08:13:16.546Z,5.48
2018-12-30T08:14:16.819Z,5.42
2018-12-30T08:15:16.096Z,5.43
2018-12-30T08:16:16.359Z,5.52
2018-12-30T08:17:16.625Z,5.53
2018-12-30T08:18:15.893Z,5.55
2018-12-30T08:19:16.156Z,5.53
2018-12-30T08:20:16.450Z,5.53
2018-12-30T08:21:16.504Z,5.53
2018-12-30T08:22:16.766Z,5.52
2018-12-30T08:23:21.363Z,5.53
2018-12-30T08:24:15.936Z,5.50
2018-12-30T08:25:16.204Z,5.61
2018-12-30T08:26:16.463Z,5.58
2018-12-30T08:27:16.725Z,5.59
2018-12-30T08:28:15.985Z,5.57
2018-12-30T08:29:16.261Z,5.59
2018-12-30T08:30:16.541Z,5.55
2018-12-30T08:31:16.585Z,5.61
2018-12-30T08:32:15.846Z,5.63
2018-12-30T08:33:16.122Z,5.64
2018-12-30T08:34:16.400Z,5.67
2018-12-30T08:35:16.662Z,5.68
2018-12-30T08:36:15.934Z,5.65
2018-12-30T08:37:16.199Z,5.68
2018-12-30T08:38:16.467Z,5.65
2018-12-30T08:39:16.742Z,5.63
2018-12-30T08:40:16.021Z,5.66
2018-12-30T08:41:16.080Z,5.68
2018-12-30T08:42:16.341Z,5.69
2018-12-30T08:43:17.295Z,5.73
2018-12-30T08:44:16.622Z,5.75
2018-12-30T08:45:15.978Z,5.73
2018-12-30T08:46:16.243Z,5.79
2018-12-30T08:47:16.517Z,5.74
2018-12-30T08:48:16.774Z,5.75
2018-12-30T08:49:16.040Z,5.75
2018-12-30T08:50:16.319Z,5.78
2018-12-30T08:51:16.371Z,5.72
2018-12-30T08:52:16.631Z,5.79
2018-12-30T08:53:15.896Z,5.77
2018-12-30T08:54:16.475Z,5.77
2018-12-30T08:55:16.744Z,5.82
2018-12-30T08:56:16.010Z,5.79
2018-12-30T08:57:16.280Z,5.79
2018-12-30T08:58:16.610Z,5.75
2018-12-30T08:59:15.874Z,5.75
2018-12-30T09:00:16.147Z,5.74
2018-12-30T09:01:16.200Z,5.79
2018-12-30T09:02:16.460Z,5.77
2018-12-30T09:03:16.739Z,5.77
2018-12-30T09:04:16.002Z,5.75
2018-12-30T09:05:16.351Z,5.74
2018-12-30T09:06:16.628Z,5.82
2018-12-30T09:07:15.993Z,5.82
2018-12-30T09:08:16.392Z,5.80
2018-12-30T09:09:16.723Z,5.82
2018-12-30T09:10:16.045Z,5.79
2018-12-30T09:11:16.101Z,5.78
2018-12-30T09:12:16.372Z,5.75
2018-12-30T09:13:16.637Z,5.85
2018-12-30T09:14:15.898Z,5.86
2018-12-30T09:15:16.165Z,5.86
2018-12-30T09:16:16.431Z,5.91
2018-12-30T09:17:18.303Z,5.94
2018-12-30T09:18:16.676Z,5.93
2018-12-30T09:19:15.942Z,5.99
2018-12-30T09:20:16.219Z,5.98
2018-12-30T09:21:16.282Z,6.02
2018-12-30T09:22:16.569Z,5.96
2018-12-30T09:23:15.834Z,6.00
2018-12-30T09:24:16.099Z,6.08
2018-12-30T09:25:16.368Z,6.03
2018-12-30T09:26:16.625Z,6.08
2018-12-30T09:27:15.896Z,6.08
2018-12-30T09:28:16.159Z,6.10
2018-12-30T09:29:16.416Z,6.09
2018-12-30T09:30:16.698Z,6.12
2018-12-30T09:31:16.732Z,6.10
2018-12-30T09:32:16.077Z,6.13
2018-12-30T09:33:16.354Z,6.13
2018-12-30T09:34:16.619Z,6.13
2018-12-30T09:35:15.886Z,6.16
2018-12-30T09:36:16.155Z,6.16
2018-12-30T09:37:16.427Z,6.17
2018-12-30T09:38:16.689Z,6.21
2018-12-30T09:39:15.954Z,6.19
2018-12-30T09:40:16.220Z,6.19
2018-12-30T09:41:16.283Z,6.21
2018-12-30T09:42:16.548Z,6.23
2018-12-30T09:43:16.814Z,6.23
2018-12-30T09:44:16.089Z,6.23
2018-12-30T09:45:16.357Z,6.24
2018-12-30T09:46:16.616Z,6.29
2018-12-30T09:47:15.881Z,6.26
2018-12-30T09:48:16.143Z,6.29
2018-12-30T09:49:16.413Z,6.31
2018-12-30T09:50:16.703Z,6.36
2018-12-30T09:51:16.992Z,6.30
2018-12-30T09:52:16.255Z,6.29
2018-12-30T09:53:16.523Z,6.33
2018-12-30T09:54:16.789Z,6.37
2018-12-30T09:55:16.051Z,6.34
2018-12-30T09:56:16.308Z,6.38
2018-12-30T09:57:16.572Z,6.40
2018-12-30T09:58:15.842Z,6.33
2018-12-30T09:59:16.113Z,6.36
2018-12-30T10:00:16.387Z,6.38
2018-12-30T10:01:16.461Z,6.43
2018-12-30T10:02:17.005Z,6.41
2018-12-30T10:03:16.268Z,6.41
2018-12-30T10:04:16.533Z,6.41
2018-12-30T10:05:16.827Z,6.37
2018-12-30T10:06:16.095Z,6.40
2018-12-30T10:07:16.356Z,6.31
2018-12-30T10:08:16.616Z,6.31
2018-12-30T10:09:15.875Z,6.29
2018-12-30T10:10:16.150Z,6.34
2018-12-30T10:11:16.212Z,6.34
2018-12-30T10:12:16.480Z,6.41
2018-12-30T10:13:16.749Z,6.45
2018-12-30T10:14:16.004Z,6.45
2018-12-30T10:15:16.282Z,6.48
2018-12-30T10:16:16.568Z,6.48
2018-12-30T10:17:15.836Z,6.48
2018-12-30T10:18:16.108Z,6.48
2018-12-30T10:19:16.370Z,6.48
2018-12-30T10:20:16.645Z,6.49
2018-12-30T10:21:16.687Z,6.51
2018-12-30T10:22:15.948Z,6.54
2018-12-30T10:23:16.222Z,6.51
2018-12-30T10:24:16.493Z,6.52
2018-12-30T10:25:16.754Z,6.49
2018-12-30T10:26:16.029Z,6.55
2018-12-30T10:27:16.292Z,6.58
2018-12-30T10:28:16.555Z,6.61
2018-12-30T10:29:16.826Z,6.59
2018-12-30T10:30:16.122Z,6.58
2018-12-30T10:31:16.157Z,6.59
2018-12-30T10:32:16.428Z,6.63
2018-12-30T10:33:16.702Z,6.61
2018-12-30T10:34:16.043Z,6.65
2018-12-30T10:35:16.323Z,6.58
2018-12-30T10:36:16.589Z,6.64
2018-12-30T10:37:15.850Z,6.65
2018-12-30T10:38:16.125Z,6.67
2018-12-30T10:39:16.389Z,6.64
2018-12-30T10:40:16.664Z,6.64
2018-12-30T10:41:16.706Z,6.64
2018-12-30T10:42:15.963Z,6.64
2018-12-30T10:43:16.225Z,6.64
2018-12-30T10:44:16.499Z,6.64
2018-12-30T10:45:16.767Z,6.69
2018-12-30T10:46:16.037Z,6.68
2018-12-30T10:47:16.300Z,6.68
2018-12-30T10:48:16.579Z,6.69
2018-12-30T10:49:15.845Z,6.72
2018-12-30T10:50:16.244Z,6.76
2018-12-30T10:51:16.167Z,6.71
2018-12-30T10:52:16.428Z,6.71
2018-12-30T10:53:16.690Z,6.74
2018-12-30T10:54:15.969Z,6.74
2018-12-30T10:55:16.235Z,6.75
2018-12-30T10:56:16.512Z,6.74
2018-12-30T10:57:16.786Z,6.71
2018-12-30T10:58:16.063Z,6.71
2018-12-30T10:59:16.340Z,6.75
2018-12-30T11:00:16.618Z,6.74
2018-12-30T11:01:16.689Z,6.72
2018-12-30T11:02:15.945Z,6.75
2018-12-30T11:03:16.220Z,6.75
2018-12-30T11:04:16.491Z,6.75
2018-12-30T11:05:16.764Z,6.81
2018-12-30T11:06:16.024Z,6.84
2018-12-30T11:07:16.281Z,6.81
2018-12-30T11:08:16.556Z,6.82
2018-12-30T11:09:16.811Z,6.85
2018-12-30T11:10:16.083Z,6.84
2018-12-30T11:11:16.131Z,6.82
2018-12-30T11:12:16.403Z,6.81
2018-12-30T11:13:16.659Z,6.84
2018-12-30T11:14:15.926Z,6.89
2018-12-30T11:15:16.205Z,6.82
2018-12-30T11:16:16.475Z,6.74
2018-12-30T11:17:16.747Z,6.84
2018-12-30T11:18:16.005Z,6.89
2018-12-30T11:19:16.536Z,6.91
2018-12-30T11:20:16.816Z,7.00
2018-12-30T11:21:15.844Z,7.03
2018-12-30T11:22:16.136Z,7.06
2018-12-30T11:23:16.402Z,7.05
2018-12-30T11:24:16.684Z,7.06
2018-12-30T11:25:15.963Z,7.02
2018-12-30T11:26:16.239Z,7.03
2018-12-30T11:27:16.501Z,7.03
2018-12-30T11:28:16.763Z,6.98
2018-12-30T11:29:16.026Z,7.00
2018-12-30T11:30:16.289Z,7.02
2018-12-30T11:31:16.351Z,7.03
2018-12-30T11:32:16.618Z,7.00
2018-12-30T11:33:15.923Z,7.02
2018-12-30T11:34:16.202Z,7.03
2018-12-30T11:35:16.459Z,7.05
2018-12-30T11:36:17.576Z,7.16
2018-12-30T11:37:15.997Z,7.13
2018-12-30T11:38:16.262Z,7.15
2018-12-30T11:39:16.531Z,7.13
2018-12-30T11:40:17.001Z,7.16
2018-12-30T11:41:15.841Z,7.15
2018-12-30T11:42:16.103Z,7.05
2018-12-30T11:43:16.391Z,7.10
2018-12-30T11:44:16.652Z,7.13
2018-12-30T11:45:15.913Z,7.13
2018-12-30T11:46:16.190Z,7.05
2018-12-30T11:47:16.444Z,7.05
2018-12-30T11:48:16.708Z,7.10
2018-12-30T11:49:15.989Z,7.07
2018-12-30T11:50:16.267Z,7.13
2018-12-30T11:51:16.314Z,7.13
2018-12-30T11:52:16.579Z,7.22
2018-12-30T11:53:15.838Z,7.22
2018-12-30T11:54:16.489Z,7.19
2018-12-30T11:55:16.205Z,7.17
2018-12-30T11:56:16.476Z,7.23
2018-12-30T11:57:16.740Z,7.15
2018-12-30T11:58:16.006Z,7.16
2018-12-30T11:59:16.261Z,7.23
2018-12-30T12:00:16.538Z,7.16
2018-12-30T12:01:16.611Z,7.19
2018-12-30T12:02:15.907Z,7.20
2018-12-30T12:03:16.166Z,7.16
2018-12-30T12:04:16.435Z,7.19
2018-12-30T12:05:16.710Z,7.15
2018-12-30T12:06:15.973Z,7.06
2018-12-30T12:07:16.254Z,7.05
2018-12-30T12:08:16.519Z,7.09
2018-12-30T12:09:16.780Z,7.15
2018-12-30T12:10:16.044Z,7.07
2018-12-30T12:11:16.119Z,7.02
2018-12-30T12:12:16.383Z,7.00
2018-12-30T12:13:16.645Z,7.00
2018-12-30T12:14:15.929Z,7.03
2018-12-30T12:15:16.196Z,6.95
2018-12-30T12:16:16.463Z,6.95
2018-12-30T12:17:16.733Z,6.89
2018-12-30T12:18:16.001Z,6.85
2018-12-30T12:19:16.269Z,6.85
2018-12-30T12:20:16.626Z,7.00
2018-12-30T12:21:16.584Z,6.98
2018-12-30T12:22:15.852Z,6.99
2018-12-30T12:23:16.126Z,6.91
2018-12-30T12:24:24.061Z,6.88
2018-12-30T12:25:15.968Z,6.85
2018-12-30T12:26:16.241Z,6.92
2018-12-30T12:27:16.511Z,6.96
2018-12-30T12:28:16.806Z,6.96
2018-12-30T12:29:16.085Z,6.99
2018-12-30T12:30:16.380Z,6.98
2018-12-30T12:31:16.406Z,6.91
2018-12-30T12:32:16.665Z,7.00
2018-12-30T12:33:15.925Z,6.96
2018-12-30T12:34:17.506Z,7.05
2018-12-30T12:35:15.884Z,7.05
2018-12-30T12:36:16.163Z,7.05
2018-12-30T12:37:16.434Z,7.02
2018-12-30T12:38:16.697Z,7.07
2018-12-30T12:39:16.016Z,7.05
2018-12-30T12:40:16.339Z,7.02
2018-12-30T12:41:16.321Z,7.00
2018-12-30T12:42:16.597Z,6.98
2018-12-30T12:43:15.862Z,6.95
2018-12-30T12:44:16.137Z,7.06
2018-12-30T12:45:16.421Z,7.02
2018-12-30T12:46:16.690Z,7.06
2018-12-30T12:47:15.967Z,7.13
2018-12-30T12:48:16.241Z,7.12
2018-12-30T12:49:16.511Z,7.26
2018-12-30T12:50:16.799Z,7.26
2018-12-30T12:51:15.825Z,7.19
2018-12-30T12:52:16.089Z,7.26
2018-12-30T12:53:16.353Z,7.26
2018-12-30T12:54:16.618Z,7.29
2018-12-30T12:55:15.890Z,7.22
2018-12-30T12:56:16.157Z,7.29
2018-12-30T12:57:16.423Z,7.29
2018-12-30T12:58:16.691Z,7.31
2018-12-30T12:59:15.955Z,7.26
2018-12-30T13:00:16.253Z,7.22
2018-12-30T13:01:16.288Z,7.26
2018-12-30T13:02:16.548Z,7.30
2018-12-30T13:03:16.811Z,7.17
2018-12-30T13:04:16.086Z,7.24
2018-12-30T13:05:16.354Z,7.29
2018-12-30T13:06:16.612Z,7.22
2018-12-30T13:07:15.874Z,7.23
2018-12-30T13:08:16.138Z,7.22
2018-12-30T13:09:16.400Z,7.16
2018-12-30T13:10:16.692Z,7.22
2018-12-30T13:11:16.710Z,7.15
2018-12-30T13:12:15.964Z,7.15
2018-12-30T13:13:16.257Z,7.10
2018-12-30T13:14:16.521Z,7.07
2018-12-30T13:15:16.784Z,7.05
2018-12-30T13:16:16.065Z,7.05
2018-12-30T13:17:16.329Z,7.09
2018-12-30T13:18:16.601Z,7.09